sensor_id;sensor_type;location;lat;lon;timestamp;temperature;humidity
20722;DHT22;10522;52.198;9.890;2023-03-01T00:00:38;-2.90;99.90
20722;DHT22;10522;52.198;9.890;2023-03-01T00:03:04;-3.00;99.90
20722;DHT22;10522;52.198;9.890;2023-03-01T00:05:30;-3.00;99.90
20722;DHT22;10522;52.198;9.890;2023-03-01T00:07:55;-3.10;99.90
20722;DHT22;10522;52.198;9.890;2023-03-01T00:10:21;-3.20;99.90
20722;DHT22;10522;52.198;9.890;2023-03-01T00:12:47;-3.20;99.90
20722;DHT22;10522;52.198;9.890;2023-03-01T00:15:12;-3.30;99.90
20722;DHT22;10522;52.198;9.890;2023-03-01T00:17:38;-3.20;99.90
20722;DHT22;10522;52.198;9.890;2023-03-01T00:20:04;-3.30;99.90
20722;DHT22;10522;52.198;9.890;2023-03-01T00:22:33;-3.40;99.90
20722;DHT22;10522;52.198;9.890;2023-03-01T00:24:59;-3.30;99.90
20722;DHT22;10522;52.198;9.890;2023-03-01T00:27:24;-3.30;99.90
20722;DHT22;10522;52.198;9.890;2023-03-01T00:29:50;-3.20;99.90
20722;DHT22;10522;52.198;9.890;2023-03-01T00:32:17;-3.20;99.90
20722;DHT22;10522;52.198;9.890;2023-03-01T00:34:42;-3.20;99.90
20722;DHT22;10522;52.198;9.890;2023-03-01T00:37:14;-3.20;99.90
20722;DHT22;10522;52.198;9.890;2023-03-01T00:39:39;-3.20;99.90
20722;DHT22;10522;52.198;9.890;2023-03-01T00:42:05;-3.20;99.90
20722;DHT22;10522;52.198;9.890;2023-03-01T00:44:31;-3.30;99.90
20722;DHT22;10522;52.198;9.890;2023-03-01T00:46:57;-3.30;99.90
20722;DHT22;10522;52.198;9.890;2023-03-01T00:49:22;-3.30;99.90
20722;DHT22;10522;52.198;9.890;2023-03-01T00:51:49;-3.40;99.90
20722;DHT22;10522;52.198;9.890;2023-03-01T00:54:15;-3.40;99.90
20722;DHT22;10522;52.198;9.890;2023-03-01T00:56:40;-3.30;99.90
20722;DHT22;10522;52.198;9.890;2023-03-01T00:59:06;-3.30;99.90
20722;DHT22;10522;52.198;9.890;2023-03-01T01:01:31;-3.30;99.90
20722;DHT22;10522;52.198;9.890;2023-03-01T01:04:01;-3.30;99.90
20722;DHT22;10522;52.198;9.890;2023-03-01T01:06:33;-3.30;99.90
20722;DHT22;10522;52.198;9.890;2023-03-01T01:09:00;-3.50;99.90
20722;DHT22;10522;52.198;9.890;2023-03-01T01:11:28;-3.60;99.90
20722;DHT22;10522;52.198;9.890;2023-03-01T01:13:54;-3.80;99.90
20722;DHT22;10522;52.198;9.890;2023-03-01T01:16:22;-3.90;99.90
20722;DHT22;10522;52.198;9.890;2023-03-01T01:29:07;-3.90;99.90
20722;DHT22;10522;52.198;9.890;2023-03-01T01:31:34;-4.00;99.90
20722;DHT22;10522;52.198;9.890;2023-03-01T01:34:01;-3.90;99.90
20722;DHT22;10522;52.198;9.890;2023-03-01T01:36:27;-3.90;99.90
20722;DHT22;10522;52.198;9.890;2023-03-01T01:38:53;-3.90;99.90
20722;DHT22;10522;52.198;9.890;2023-03-01T01:41:19;-3.90;99.90
20722;DHT22;10522;52.198;9.890;2023-03-01T01:46:33;-3.90;99.90
20722;DHT22;10522;52.198;9.890;2023-03-01T01:49:03;-3.90;99.90
20722;DHT22;10522;52.198;9.890;2023-03-01T01:51:40;-3.90;99.90
20722;DHT22;10522;52.198;9.890;2023-03-01T01:54:22;-3.80;99.90
20722;DHT22;10522;52.198;9.890;2023-03-01T01:56:56;-3.70;99.90
20722;DHT22;10522;52.198;9.890;2023-03-01T01:59:23;-3.80;99.90
20722;DHT22;10522;52.198;9.890;2023-03-01T02:01:51;-3.80;99.90
20722;DHT22;10522;52.198;9.890;2023-03-01T02:04:17;-3.80;99.90
20722;DHT22;10522;52.198;9.890;2023-03-01T02:09:34;-3.80;99.90
20722;DHT22;10522;52.198;9.890;2023-03-01T02:12:02;-3.80;99.90
20722;DHT22;10522;52.198;9.890;2023-03-01T02:14:28;-3.80;99.90
20722;DHT22;10522;52.198;9.890;2023-03-01T02:16:53;-3.80;99.90
20722;DHT22;10522;52.198;9.890;2023-03-01T02:22:34;-4.00;99.90
20722;DHT22;10522;52.198;9.890;2023-03-01T02:25:08;-4.10;99.90
20722;DHT22;10522;52.198;9.890;2023-03-01T02:30:20;-4.20;99.90
20722;DHT22;10522;52.198;9.890;2023-03-01T02:32:46;-4.30;99.90
20722;DHT22;10522;52.198;9.890;2023-03-01T02:35:14;-4.30;99.90
20722;DHT22;10522;52.198;9.890;2023-03-01T02:37:42;-4.30;99.90
20722;DHT22;10522;52.198;9.890;2023-03-01T02:40:12;-4.40;99.90
20722;DHT22;10522;52.198;9.890;2023-03-01T02:42:58;-4.40;99.90
20722;DHT22;10522;52.198;9.890;2023-03-01T02:45:26;-4.40;99.90
20722;DHT22;10522;52.198;9.890;2023-03-01T02:47:56;-4.40;99.90
20722;DHT22;10522;52.198;9.890;2023-03-01T02:50:34;-4.50;99.90
20722;DHT22;10522;52.198;9.890;2023-03-01T02:53:28;-4.50;99.90
20722;DHT22;10522;52.198;9.890;2023-03-01T02:55:57;-4.50;99.90
20722;DHT22;10522;52.198;9.890;2023-03-01T02:58:24;-4.50;99.90
20722;DHT22;10522;52.198;9.890;2023-03-01T03:00:50;-4.40;99.90
20722;DHT22;10522;52.198;9.890;2023-03-01T03:03:20;-4.40;99.90
20722;DHT22;10522;52.198;9.890;2023-03-01T03:05:46;-4.40;99.90
20722;DHT22;10522;52.198;9.890;2023-03-01T03:08:14;-4.40;99.90
20722;DHT22;10522;52.198;9.890;2023-03-01T03:10:41;-4.40;99.90
20722;DHT22;10522;52.198;9.890;2023-03-01T03:13:11;-4.60;99.90
20722;DHT22;10522;52.198;9.890;2023-03-01T03:15:38;-4.60;99.90
20722;DHT22;10522;52.198;9.890;2023-03-01T03:18:06;-4.70;99.90
20722;DHT22;10522;52.198;9.890;2023-03-01T03:20:33;-4.70;99.90
20722;DHT22;10522;52.198;9.890;2023-03-01T03:22:59;-4.60;99.90
20722;DHT22;10522;52.198;9.890;2023-03-01T03:25:27;-4.50;99.90
20722;DHT22;10522;52.198;9.890;2023-03-01T03:27:54;-4.50;99.90
20722;DHT22;10522;52.198;9.890;2023-03-01T03:30:26;-4.50;99.90
20722;DHT22;10522;52.198;9.890;2023-03-01T03:32:54;-4.50;99.90
20722;DHT22;10522;52.198;9.890;2023-03-01T03:35:24;-4.40;99.90
20722;DHT22;10522;52.198;9.890;2023-03-01T03:37:51;-4.30;99.90
20722;DHT22;10522;52.198;9.890;2023-03-01T03:42:59;-4.20;99.90
20722;DHT22;10522;52.198;9.890;2023-03-01T03:45:25;-4.20;99.90
20722;DHT22;10522;52.198;9.890;2023-03-01T03:47:51;-4.30;99.90
20722;DHT22;10522;52.198;9.890;2023-03-01T03:50:18;-4.30;99.90
20722;DHT22;10522;52.198;9.890;2023-03-01T03:52:44;-4.20;99.90
20722;DHT22;10522;52.198;9.890;2023-03-01T03:55:11;-4.20;99.90
20722;DHT22;10522;52.198;9.890;2023-03-01T03:57:40;-4.20;99.90
20722;DHT22;10522;52.198;9.890;2023-03-01T04:00:08;-4.20;99.90
20722;DHT22;10522;52.198;9.890;2023-03-01T04:02:41;-4.20;99.90
20722;DHT22;10522;52.198;9.890;2023-03-01T04:05:09;-4.20;99.90
20722;DHT22;10522;52.198;9.890;2023-03-01T04:07:36;-4.20;99.90
20722;DHT22;10522;52.198;9.890;2023-03-01T04:10:09;-4.30;99.90
20722;DHT22;10522;52.198;9.890;2023-03-01T04:12:37;-4.30;99.90
20722;DHT22;10522;52.198;9.890;2023-03-01T04:15:04;-4.40;99.90
20722;DHT22;10522;52.198;9.890;2023-03-01T04:17:42;-4.40;99.90
20722;DHT22;10522;52.198;9.890;2023-03-01T04:20:13;-4.70;99.90
20722;DHT22;10522;52.198;9.890;2023-03-01T04:22:39;-4.70;99.90
20722;DHT22;10522;52.198;9.890;2023-03-01T04:25:06;-4.70;99.90
20722;DHT22;10522;52.198;9.890;2023-03-01T04:27:36;-4.70;99.90
20722;DHT22;10522;52.198;9.890;2023-03-01T04:30:04;-4.70;99.90
20722;DHT22;10522;52.198;9.890;2023-03-01T04:32:30;-4.70;99.90
20722;DHT22;10522;52.198;9.890;2023-03-01T04:34:56;-4.70;99.90
20722;DHT22;10522;52.198;9.890;2023-03-01T04:37:21;-4.70;99.90
20722;DHT22;10522;52.198;9.890;2023-03-01T04:39:47;-4.80;99.90
20722;DHT22;10522;52.198;9.890;2023-03-01T04:42:13;-4.80;99.90
20722;DHT22;10522;52.198;9.890;2023-03-01T04:44:39;-4.70;99.90
20722;DHT22;10522;52.198;9.890;2023-03-01T04:47:05;-4.70;99.90
20722;DHT22;10522;52.198;9.890;2023-03-01T04:49:30;-4.70;99.90
20722;DHT22;10522;52.198;9.890;2023-03-01T04:51:56;-4.70;99.90
20722;DHT22;10522;52.198;9.890;2023-03-01T04:54:28;-4.70;99.90
20722;DHT22;10522;52.198;9.890;2023-03-01T04:56:54;-4.70;99.90
20722;DHT22;10522;52.198;9.890;2023-03-01T04:59:20;-4.70;99.90
20722;DHT22;10522;52.198;9.890;2023-03-01T05:01:48;-4.60;99.90
20722;DHT22;10522;52.198;9.890;2023-03-01T05:04:14;-4.70;99.90
20722;DHT22;10522;52.198;9.890;2023-03-01T05:06:40;-4.70;99.90
20722;DHT22;10522;52.198;9.890;2023-03-01T05:09:06;-4.70;99.90
20722;DHT22;10522;52.198;9.890;2023-03-01T05:11:31;-4.70;99.90
20722;DHT22;10522;52.198;9.890;2023-03-01T05:14:05;-4.80;99.90
20722;DHT22;10522;52.198;9.890;2023-03-01T05:16:32;-4.80;99.90
20722;DHT22;10522;52.198;9.890;2023-03-01T05:18:58;-4.80;99.90
20722;DHT22;10522;52.198;9.890;2023-03-01T05:21:24;-4.80;99.90
20722;DHT22;10522;52.198;9.890;2023-03-01T05:23:50;-4.90;99.90
20722;DHT22;10522;52.198;9.890;2023-03-01T05:26:18;-5.00;99.90
20722;DHT22;10522;52.198;9.890;2023-03-01T05:28:45;-5.20;99.90
20722;DHT22;10522;52.198;9.890;2023-03-01T05:31:10;-5.10;99.90
20722;DHT22;10522;52.198;9.890;2023-03-01T05:33:40;-5.10;99.90
20722;DHT22;10522;52.198;9.890;2023-03-01T05:36:07;-5.20;99.90
20722;DHT22;10522;52.198;9.890;2023-03-01T05:38:35;-5.20;99.90
20722;DHT22;10522;52.198;9.890;2023-03-01T05:41:01;-5.20;99.90
20722;DHT22;10522;52.198;9.890;2023-03-01T05:43:30;-5.20;99.90
20722;DHT22;10522;52.198;9.890;2023-03-01T05:45:59;-5.20;99.90
20722;DHT22;10522;52.198;9.890;2023-03-01T05:48:25;-5.20;99.90
20722;DHT22;10522;52.198;9.890;2023-03-01T05:50:51;-5.10;99.90
20722;DHT22;10522;52.198;9.890;2023-03-01T05:53:19;-5.10;99.90
20722;DHT22;10522;52.198;9.890;2023-03-01T05:55:47;-5.10;99.90
20722;DHT22;10522;52.198;9.890;2023-03-01T05:58:16;-5.10;99.90
20722;DHT22;10522;52.198;9.890;2023-03-01T06:00:43;-5.10;99.90
20722;DHT22;10522;52.198;9.890;2023-03-01T06:03:11;-5.10;99.90
20722;DHT22;10522;52.198;9.890;2023-03-01T06:05:37;-5.10;99.90
20722;DHT22;10522;52.198;9.890;2023-03-01T06:08:03;-5.10;99.90
20722;DHT22;10522;52.198;9.890;2023-03-01T06:10:29;-5.20;99.90
20722;DHT22;10522;52.198;9.890;2023-03-01T06:12:55;-5.20;99.90
20722;DHT22;10522;52.198;9.890;2023-03-01T06:15:21;-5.20;99.90
20722;DHT22;10522;52.198;9.890;2023-03-01T06:17:47;-5.20;99.90
20722;DHT22;10522;52.198;9.890;2023-03-01T06:20:19;-5.20;99.90
20722;DHT22;10522;52.198;9.890;2023-03-01T06:22:45;-5.20;99.90
20722;DHT22;10522;52.198;9.890;2023-03-01T06:25:13;-5.10;99.90
20722;DHT22;10522;52.198;9.890;2023-03-01T06:27:38;-5.10;99.90
20722;DHT22;10522;52.198;9.890;2023-03-01T06:30:05;-5.10;99.90
20722;DHT22;10522;52.198;9.890;2023-03-01T06:32:31;-5.00;99.90
20722;DHT22;10522;52.198;9.890;2023-03-01T06:34:57;-4.90;99.90
20722;DHT22;10522;52.198;9.890;2023-03-01T06:37:24;-5.00;99.90
20722;DHT22;10522;52.198;9.890;2023-03-01T06:39:50;-5.00;99.90
20722;DHT22;10522;52.198;9.890;2023-03-01T06:42:16;-5.00;99.90
20722;DHT22;10522;52.198;9.890;2023-03-01T06:44:41;-4.90;99.90
20722;DHT22;10522;52.198;9.890;2023-03-01T06:47:07;-4.90;99.90
20722;DHT22;10522;52.198;9.890;2023-03-01T06:49:33;-4.90;99.90
20722;DHT22;10522;52.198;9.890;2023-03-01T06:51:58;-4.80;99.90
20722;DHT22;10522;52.198;9.890;2023-03-01T06:54:24;-4.80;99.90
20722;DHT22;10522;52.198;9.890;2023-03-01T06:56:51;-4.90;99.90
20722;DHT22;10522;52.198;9.890;2023-03-01T06:59:18;-4.60;99.90
20722;DHT22;10522;52.198;9.890;2023-03-01T07:01:47;-4.70;99.90
20722;DHT22;10522;52.198;9.890;2023-03-01T07:04:17;-4.60;99.90
20722;DHT22;10522;52.198;9.890;2023-03-01T07:06:42;-4.70;99.90
20722;DHT22;10522;52.198;9.890;2023-03-01T07:09:08;-4.70;99.90
20722;DHT22;10522;52.198;9.890;2023-03-01T07:11:34;-4.60;99.90
20722;DHT22;10522;52.198;9.890;2023-03-01T07:13:59;-4.50;99.90
20722;DHT22;10522;52.198;9.890;2023-03-01T07:16:25;-4.40;99.90
20722;DHT22;10522;52.198;9.890;2023-03-01T07:18:51;-4.40;99.90
20722;DHT22;10522;52.198;9.890;2023-03-01T07:21:16;-4.30;99.90
20722;DHT22;10522;52.198;9.890;2023-03-01T07:23:42;-4.20;99.90
20722;DHT22;10522;52.198;9.890;2023-03-01T07:26:08;-4.10;99.90
20722;DHT22;10522;52.198;9.890;2023-03-01T07:28:34;-4.10;99.90
20722;DHT22;10522;52.198;9.890;2023-03-01T07:31:07;-4.10;99.90
20722;DHT22;10522;52.198;9.890;2023-03-01T07:33:33;-4.00;99.90
20722;DHT22;10522;52.198;9.890;2023-03-01T07:36:00;-3.90;99.90
20722;DHT22;10522;52.198;9.890;2023-03-01T07:38:27;-3.80;99.90
20722;DHT22;10522;52.198;9.890;2023-03-01T07:40:53;-3.70;99.90
20722;DHT22;10522;52.198;9.890;2023-03-01T07:43:19;-3.50;99.90
20722;DHT22;10522;52.198;9.890;2023-03-01T07:45:46;-3.30;99.90
20722;DHT22;10522;52.198;9.890;2023-03-01T07:48:11;-3.10;99.90
20722;DHT22;10522;52.198;9.890;2023-03-01T07:50:37;-2.80;99.90
20722;DHT22;10522;52.198;9.890;2023-03-01T07:53:02;-2.80;99.90
20722;DHT22;10522;52.198;9.890;2023-03-01T07:55:29;-2.60;99.90
20722;DHT22;10522;52.198;9.890;2023-03-01T07:57:54;-2.60;99.90
20722;DHT22;10522;52.198;9.890;2023-03-01T08:00:20;-2.50;99.90
20722;DHT22;10522;52.198;9.890;2023-03-01T08:02:45;-2.50;99.90
20722;DHT22;10522;52.198;9.890;2023-03-01T08:05:11;-2.50;99.90
20722;DHT22;10522;52.198;9.890;2023-03-01T08:07:37;-2.50;99.90
20722;DHT22;10522;52.198;9.890;2023-03-01T08:10:03;-2.50;99.90
20722;DHT22;10522;52.198;9.890;2023-03-01T08:12:29;-2.40;99.90
20722;DHT22;10522;52.198;9.890;2023-03-01T08:14:54;-2.50;99.90
20722;DHT22;10522;52.198;9.890;2023-03-01T08:17:20;-2.40;99.90
20722;DHT22;10522;52.198;9.890;2023-03-01T08:19:46;-2.40;99.90
20722;DHT22;10522;52.198;9.890;2023-03-01T08:22:11;-2.40;99.90
20722;DHT22;10522;52.198;9.890;2023-03-01T08:24:37;-2.20;99.90
20722;DHT22;10522;52.198;9.890;2023-03-01T08:27:04;-2.10;99.90
20722;DHT22;10522;52.198;9.890;2023-03-01T08:29:33;-2.10;99.90
20722;DHT22;10522;52.198;9.890;2023-03-01T08:31:59;-2.10;99.90
20722;DHT22;10522;52.198;9.890;2023-03-01T08:34:25;-2.00;99.90
20722;DHT22;10522;52.198;9.890;2023-03-01T08:36:51;-1.90;99.90
20722;DHT22;10522;52.198;9.890;2023-03-01T08:39:19;-1.90;99.90
20722;DHT22;10522;52.198;9.890;2023-03-01T08:41:46;-1.80;99.90
20722;DHT22;10522;52.198;9.890;2023-03-01T08:44:13;-1.60;99.90
20722;DHT22;10522;52.198;9.890;2023-03-01T08:46:40;-1.50;99.90
20722;DHT22;10522;52.198;9.890;2023-03-01T08:49:16;-1.40;99.90
20722;DHT22;10522;52.198;9.890;2023-03-01T08:51:43;-1.40;99.90
20722;DHT22;10522;52.198;9.890;2023-03-01T08:54:17;-1.30;99.90
20722;DHT22;10522;52.198;9.890;2023-03-01T08:56:44;-1.10;99.90
20722;DHT22;10522;52.198;9.890;2023-03-01T08:59:14;-1.00;99.90
20722;DHT22;10522;52.198;9.890;2023-03-01T09:01:40;-0.90;99.90
20722;DHT22;10522;52.198;9.890;2023-03-01T09:04:09;-0.70;99.90
20722;DHT22;10522;52.198;9.890;2023-03-01T09:06:36;-0.70;99.90
20722;DHT22;10522;52.198;9.890;2023-03-01T09:09:02;-0.50;99.90
20722;DHT22;10522;52.198;9.890;2023-03-01T09:11:29;-0.50;99.90
20722;DHT22;10522;52.198;9.890;2023-03-01T09:13:55;-0.20;99.90
20722;DHT22;10522;52.198;9.890;2023-03-01T09:16:22;-0.20;99.90
20722;DHT22;10522;52.198;9.890;2023-03-01T09:18:53;-0.10;99.90
20722;DHT22;10522;52.198;9.890;2023-03-01T09:21:22;0.00;99.90
20722;DHT22;10522;52.198;9.890;2023-03-01T09:23:49;0.20;99.90
20722;DHT22;10522;52.198;9.890;2023-03-01T09:26:18;0.30;99.90
20722;DHT22;10522;52.198;9.890;2023-03-01T09:28:45;0.40;99.90
20722;DHT22;10522;52.198;9.890;2023-03-01T09:31:10;0.60;99.90
20722;DHT22;10522;52.198;9.890;2023-03-01T09:33:39;0.70;99.90
20722;DHT22;10522;52.198;9.890;2023-03-01T09:36:07;0.90;99.90
20722;DHT22;10522;52.198;9.890;2023-03-01T09:38:33;1.00;99.90
20722;DHT22;10522;52.198;9.890;2023-03-01T09:41:00;1.10;99.90
20722;DHT22;10522;52.198;9.890;2023-03-01T09:46:25;1.60;99.90
20722;DHT22;10522;52.198;9.890;2023-03-01T09:48:56;1.90;99.90
20722;DHT22;10522;52.198;9.890;2023-03-01T09:51:42;2.10;99.90
20722;DHT22;10522;52.198;9.890;2023-03-01T09:54:10;2.20;99.90
20722;DHT22;10522;52.198;9.890;2023-03-01T09:57:10;2.10;99.90
20722;DHT22;10522;52.198;9.890;2023-03-01T09:59:55;2.20;99.90
20722;DHT22;10522;52.198;9.890;2023-03-01T10:02:28;2.20;99.90
20722;DHT22;10522;52.198;9.890;2023-03-01T10:05:14;2.40;99.90
20722;DHT22;10522;52.198;9.890;2023-03-01T10:07:56;2.50;99.90
20722;DHT22;10522;52.198;9.890;2023-03-01T10:10:32;2.60;99.90
20722;DHT22;10522;52.198;9.890;2023-03-01T10:13:02;2.70;99.90
20722;DHT22;10522;52.198;9.890;2023-03-01T10:15:40;2.70;99.90
20722;DHT22;10522;52.198;9.890;2023-03-01T10:18:14;2.70;99.90
20722;DHT22;10522;52.198;9.890;2023-03-01T10:23:08;3.00;99.90
20722;DHT22;10522;52.198;9.890;2023-03-01T10:25:44;3.00;99.90
20722;DHT22;10522;52.198;9.890;2023-03-01T10:29:16;3.10;99.90
20722;DHT22;10522;52.198;9.890;2023-03-01T10:31:21;3.00;99.90
20722;DHT22;10522;52.198;9.890;2023-03-01T10:33:48;3.20;99.90
20722;DHT22;10522;52.198;9.890;2023-03-01T10:36:17;3.40;99.90
20722;DHT22;10522;52.198;9.890;2023-03-01T10:38:54;3.50;99.90
20722;DHT22;10522;52.198;9.890;2023-03-01T10:41:23;3.60;99.90
20722;DHT22;10522;52.198;9.890;2023-03-01T10:43:55;3.60;99.90
20722;DHT22;10522;52.198;9.890;2023-03-01T10:46:36;3.70;99.90
20722;DHT22;10522;52.198;9.890;2023-03-01T10:49:20;3.80;99.90
20722;DHT22;10522;52.198;9.890;2023-03-01T10:51:51;3.80;99.90
20722;DHT22;10522;52.198;9.890;2023-03-01T10:56:54;4.00;99.90
20722;DHT22;10522;52.198;9.890;2023-03-01T10:59:30;4.00;99.90
20722;DHT22;10522;52.198;9.890;2023-03-01T11:05:00;4.20;99.90
20722;DHT22;10522;52.198;9.890;2023-03-01T11:07:26;4.20;99.90
20722;DHT22;10522;52.198;9.890;2023-03-01T11:09:52;4.20;99.90
20722;DHT22;10522;52.198;9.890;2023-03-01T11:12:17;4.30;99.90
20722;DHT22;10522;52.198;9.890;2023-03-01T11:14:51;4.30;99.90
20722;DHT22;10522;52.198;9.890;2023-03-01T11:17:22;4.50;99.90
20722;DHT22;10522;52.198;9.890;2023-03-01T11:23:09;4.60;99.90
20722;DHT22;10522;52.198;9.890;2023-03-01T11:25:39;4.80;99.90
20722;DHT22;10522;52.198;9.890;2023-03-01T11:28:07;4.90;99.90
20722;DHT22;10522;52.198;9.890;2023-03-01T11:33:28;4.90;99.90
20722;DHT22;10522;52.198;9.890;2023-03-01T11:36:07;5.10;99.90
20722;DHT22;10522;52.198;9.890;2023-03-01T11:38:36;5.10;99.90
20722;DHT22;10522;52.198;9.890;2023-03-01T11:41:26;5.00;99.90
20722;DHT22;10522;52.198;9.890;2023-03-01T11:44:00;4.90;99.90
20722;DHT22;10522;52.198;9.890;2023-03-01T11:57:20;5.30;99.90
20722;DHT22;10522;52.198;9.890;2023-03-01T12:08:21;5.50;99.90
20722;DHT22;10522;52.198;9.890;2023-03-01T12:27:18;6.30;99.90
20722;DHT22;10522;52.198;9.890;2023-03-01T12:32:51;6.20;99.90
20722;DHT22;10522;52.198;9.890;2023-03-01T12:39:03;6.20;99.90
20722;DHT22;10522;52.198;9.890;2023-03-01T12:41:38;6.60;99.90
20722;DHT22;10522;52.198;9.890;2023-03-01T12:46:48;6.50;99.90
20722;DHT22;10522;52.198;9.890;2023-03-01T12:49:23;6.60;99.90
20722;DHT22;10522;52.198;9.890;2023-03-01T12:52:00;6.80;99.90
20722;DHT22;10522;52.198;9.890;2023-03-01T12:54:30;6.90;99.90
20722;DHT22;10522;52.198;9.890;2023-03-01T12:56:59;6.90;99.90
20722;DHT22;10522;52.198;9.890;2023-03-01T12:59:38;6.60;99.90
20722;DHT22;10522;52.198;9.890;2023-03-01T13:11:21;6.90;99.90
20722;DHT22;10522;52.198;9.890;2023-03-01T13:13:48;6.80;99.90
20722;DHT22;10522;52.198;9.890;2023-03-01T13:19:20;7.10;99.90
20722;DHT22;10522;52.198;9.890;2023-03-01T13:21:47;7.10;99.90
20722;DHT22;10522;52.198;9.890;2023-03-01T13:24:43;7.10;99.90
20722;DHT22;10522;52.198;9.890;2023-03-01T13:27:22;6.90;99.90
20722;DHT22;10522;52.198;9.890;2023-03-01T13:29:56;6.90;99.90
20722;DHT22;10522;52.198;9.890;2023-03-01T13:32:23;7.10;99.90
20722;DHT22;10522;52.198;9.890;2023-03-01T13:34:57;6.90;99.90
20722;DHT22;10522;52.198;9.890;2023-03-01T13:37:28;6.90;99.90
20722;DHT22;10522;52.198;9.890;2023-03-01T13:42:55;7.00;99.90
20722;DHT22;10522;52.198;9.890;2023-03-01T13:45:31;7.20;99.90
20722;DHT22;10522;52.198;9.890;2023-03-01T13:48:02;7.20;99.90
20722;DHT22;10522;52.198;9.890;2023-03-01T13:51:06;7.20;99.90
20722;DHT22;10522;52.198;9.890;2023-03-01T13:53:40;7.30;99.90
20722;DHT22;10522;52.198;9.890;2023-03-01T13:56:28;7.30;99.90
20722;DHT22;10522;52.198;9.890;2023-03-01T13:59:02;7.30;99.90
20722;DHT22;10522;52.198;9.890;2023-03-01T14:01:35;7.20;99.90
20722;DHT22;10522;52.198;9.890;2023-03-01T14:04:02;7.10;99.90
20722;DHT22;10522;52.198;9.890;2023-03-01T14:06:32;6.90;99.90
20722;DHT22;10522;52.198;9.890;2023-03-01T14:09:18;6.80;99.90
20722;DHT22;10522;52.198;9.890;2023-03-01T14:19:24;7.60;99.90
20722;DHT22;10522;52.198;9.890;2023-03-01T14:22:26;7.40;99.90
20722;DHT22;10522;52.198;9.890;2023-03-01T14:24:57;7.60;99.90
20722;DHT22;10522;52.198;9.890;2023-03-01T14:27:34;7.70;99.90
20722;DHT22;10522;52.198;9.890;2023-03-01T14:30:26;7.60;99.90
20722;DHT22;10522;52.198;9.890;2023-03-01T14:33:01;7.50;99.90
20722;DHT22;10522;52.198;9.890;2023-03-01T14:35:30;7.50;99.90
20722;DHT22;10522;52.198;9.890;2023-03-01T14:37:56;7.60;99.90
20722;DHT22;10522;52.198;9.890;2023-03-01T14:40:28;7.40;99.90
20722;DHT22;10522;52.198;9.890;2023-03-01T14:42:56;7.50;99.90
20722;DHT22;10522;52.198;9.890;2023-03-01T14:45:25;7.60;99.90
20722;DHT22;10522;52.198;9.890;2023-03-01T14:47:52;7.60;99.90
20722;DHT22;10522;52.198;9.890;2023-03-01T14:50:29;7.50;99.90
20722;DHT22;10522;52.198;9.890;2023-03-01T14:53:02;7.70;99.90
20722;DHT22;10522;52.198;9.890;2023-03-01T14:55:30;7.70;99.90
20722;DHT22;10522;52.198;9.890;2023-03-01T14:57:57;7.70;99.90
20722;DHT22;10522;52.198;9.890;2023-03-01T15:00:28;7.20;99.90
20722;DHT22;10522;52.198;9.890;2023-03-01T15:02:56;7.40;99.90
20722;DHT22;10522;52.198;9.890;2023-03-01T15:05:29;7.40;99.90
20722;DHT22;10522;52.198;9.890;2023-03-01T15:07:55;7.40;99.90
20722;DHT22;10522;52.198;9.890;2023-03-01T15:10:28;7.50;99.90
20722;DHT22;10522;52.198;9.890;2023-03-01T15:12:55;7.60;99.90
20722;DHT22;10522;52.198;9.890;2023-03-01T15:17:57;7.50;99.90
20722;DHT22;10522;52.198;9.890;2023-03-01T15:20:26;7.30;99.90
20722;DHT22;10522;52.198;9.890;2023-03-01T15:22:56;7.50;99.90
20722;DHT22;10522;52.198;9.890;2023-03-01T15:25:24;7.30;99.90
20722;DHT22;10522;52.198;9.890;2023-03-01T15:27:53;7.30;99.90
20722;DHT22;10522;52.198;9.890;2023-03-01T15:33:19;9.20;99.90
20722;DHT22;10522;52.198;9.890;2023-03-01T15:35:49;10.00;99.90
20722;DHT22;10522;52.198;9.890;2023-03-01T15:38:28;10.30;99.90
20722;DHT22;10522;52.198;9.890;2023-03-01T15:40:55;11.30;99.90
20722;DHT22;10522;52.198;9.890;2023-03-01T15:43:40;11.50;99.90
20722;DHT22;10522;52.198;9.890;2023-03-01T15:46:27;11.70;99.90
20722;DHT22;10522;52.198;9.890;2023-03-01T15:48:57;11.40;99.90
20722;DHT22;10522;52.198;9.890;2023-03-01T15:51:29;11.70;99.90
20722;DHT22;10522;52.198;9.890;2023-03-01T15:53:56;12.30;99.90
20722;DHT22;10522;52.198;9.890;2023-03-01T15:56:23;12.30;99.90
20722;DHT22;10522;52.198;9.890;2023-03-01T15:58:49;11.80;99.90
20722;DHT22;10522;52.198;9.890;2023-03-01T16:01:16;11.90;99.90
20722;DHT22;10522;52.198;9.890;2023-03-01T16:03:45;12.30;99.90
20722;DHT22;10522;52.198;9.890;2023-03-01T16:06:11;11.40;99.90
20722;DHT22;10522;52.198;9.890;2023-03-01T16:08:38;11.20;99.90
20722;DHT22;10522;52.198;9.890;2023-03-01T16:11:05;11.00;99.90
20722;DHT22;10522;52.198;9.890;2023-03-01T16:13:34;11.10;99.90
20722;DHT22;10522;52.198;9.890;2023-03-01T16:16:00;11.00;99.90
20722;DHT22;10522;52.198;9.890;2023-03-01T16:18:25;10.60;99.90
20722;DHT22;10522;52.198;9.890;2023-03-01T16:20:51;10.60;99.90
20722;DHT22;10522;52.198;9.890;2023-03-01T16:23:18;10.30;99.90
20722;DHT22;10522;52.198;9.890;2023-03-01T16:25:43;10.20;99.90
20722;DHT22;10522;52.198;9.890;2023-03-01T16:28:09;10.30;99.90
20722;DHT22;10522;52.198;9.890;2023-03-01T16:30:36;10.10;99.90
20722;DHT22;10522;52.198;9.890;2023-03-01T16:33:02;9.90;99.90
20722;DHT22;10522;52.198;9.890;2023-03-01T16:35:32;9.60;99.90
20722;DHT22;10522;52.198;9.890;2023-03-01T16:37:59;9.20;99.90
20722;DHT22;10522;52.198;9.890;2023-03-01T16:40:28;9.10;99.90
20722;DHT22;10522;52.198;9.890;2023-03-01T16:42:56;8.80;99.90
20722;DHT22;10522;52.198;9.890;2023-03-01T16:45:28;8.50;99.90
20722;DHT22;10522;52.198;9.890;2023-03-01T16:47:57;8.20;99.90
20722;DHT22;10522;52.198;9.890;2023-03-01T16:50:23;7.60;99.90
20722;DHT22;10522;52.198;9.890;2023-03-01T16:52:49;7.20;99.90
20722;DHT22;10522;52.198;9.890;2023-03-01T16:55:15;6.70;99.90
20722;DHT22;10522;52.198;9.890;2023-03-01T16:57:40;6.00;99.90
20722;DHT22;10522;52.198;9.890;2023-03-01T17:00:08;5.50;99.90
20722;DHT22;10522;52.198;9.890;2023-03-01T17:02:38;5.00;99.90
20722;DHT22;10522;52.198;9.890;2023-03-01T17:05:04;4.60;99.90
20722;DHT22;10522;52.198;9.890;2023-03-01T17:07:31;4.40;99.90
20722;DHT22;10522;52.198;9.890;2023-03-01T17:10:05;4.30;99.90
20722;DHT22;10522;52.198;9.890;2023-03-01T17:12:31;4.20;99.90
20722;DHT22;10522;52.198;9.890;2023-03-01T17:14:57;4.20;99.90
20722;DHT22;10522;52.198;9.890;2023-03-01T17:17:23;4.10;99.90
20722;DHT22;10522;52.198;9.890;2023-03-01T17:19:49;4.00;99.90
20722;DHT22;10522;52.198;9.890;2023-03-01T17:22:15;3.90;99.90
20722;DHT22;10522;52.198;9.890;2023-03-01T17:24:42;3.70;99.90
20722;DHT22;10522;52.198;9.890;2023-03-01T17:27:08;3.70;99.90
20722;DHT22;10522;52.198;9.890;2023-03-01T17:29:34;3.60;99.90
20722;DHT22;10522;52.198;9.890;2023-03-01T17:32:01;3.60;99.90
20722;DHT22;10522;52.198;9.890;2023-03-01T17:34:26;3.50;99.90
20722;DHT22;10522;52.198;9.890;2023-03-01T17:36:52;3.40;99.90
20722;DHT22;10522;52.198;9.890;2023-03-01T17:39:18;3.30;99.90
20722;DHT22;10522;52.198;9.890;2023-03-01T17:41:52;3.30;99.90
20722;DHT22;10522;52.198;9.890;2023-03-01T17:44:18;3.30;99.90